Thursday, January 17, 2019, 7:19 PM CST
Back to Local

KT82, Fredericksburg, Gillespie County Airport

Location: Fredericksburg, TX, United States Lat: 30.244
Local Time: 7:19 PM CST ( 1:19 GMT) Lon: -98.909
Time Zone: US/Central Elev: 1696 ft

Show me the last for .
Show Coded

Time T Td Feel RH Dir Speed Gust Alt SLP Vis Weather Sky Remarks
2019-01-17 18:55 59 41 - 51 - Calm - 30.12 - 10 CLR None
2019-01-17 18:35 59 42 - 54 150° 3 - 30.11 - 10 CLR None
2019-01-17 18:15 63 40 - 42 - Calm - 30.11 - 10 CLR None
2019-01-17 17:55 68 37 - 31 120° 3 - 30.10 - 10 CLR 6-hr Min Temp (6pm): 67.1°F
6-hr Max Temp (6pm): 73.0°F
2019-01-17 17:35 70 36 - 28 - Calm - 30.11 - 10 CLR None
2019-01-17 17:15 72 36 - 26 - Calm - 30.10 - 10 CLR None
2019-01-17 16:55 73 37 - 27 - Calm - 30.11 - 10 CLR None
2019-01-17 16:35 73 36 - 26 - Calm - 30.11 - 10 CLR None
2019-01-17 16:15 73 36 - 26 - Calm - 30.11 - 10 CLR None
2019-01-17 15:55 73 36 - 26 - Calm - 30.11 - 10 CLR None
2019-01-17 15:35 72 36 - 26 - Calm - 30.11 - 10 CLR None
2019-01-17 15:15 73 37 - 26 - Calm - 30.11 - 10 CLR None
2019-01-17 14:55 72 35 - 26 - Calm - 30.13 - 10 CLR None
2019-01-17 14:35 72 35 - 25 - Calm - 30.12 - 10 CLR None
2019-01-17 14:15 71 35 - 26 310° 3 - 30.12 - 10 CLR None
2019-01-17 13:55 71 36 - 27 - Calm - 30.12 - 10 CLR None
2019-01-17 13:35 71 37 - 28 - Calm - 30.13 - 10 CLR None
2019-01-17 13:15 70 36 - 28 330° 5 - 30.16 - 10 CLR None
2019-01-17 12:55 69 37 - 31 - Calm - 30.17 - 10 CLR None
2019-01-17 12:35 69 38 - 32 - Calm - 30.20 - 10 CLR None
2019-01-17 12:15 67 36 - 30 - Calm - 30.20 - 10 CLR None
2019-01-17 11:55 67 35 - 31 320° 5 - 30.22 - 10 CLR 6-hr Min Temp (12pm): 46.4°F
6-hr Max Temp (12pm): 66.9°F
2019-01-17 11:35 66 36 - 32 280° 3 - 30.22 - 10 CLR None
2019-01-17 11:15 64 42 - 43 260° 3 - 30.22 - 10 CLR None
2019-01-17 10:55 62 46 - 57 220° 6 - 30.22 - 10 CLR None
2019-01-17 10:35 60 47 - 61 230° 5 - 30.22 - 10 CLR None
2019-01-17 10:15 58 47 - 66 230° 5 - 30.21 - 10 CLR None
2019-01-17 09:55 56 46 - 71 240° 5 - 30.21 - 10 CLR None
2019-01-17 09:35 54 47 - 79 230° 6 - 30.21 - 10 CLR None
2019-01-17 09:15 52 48 - 86 230° 6 - 30.20 - 10 CLR None
2019-01-17 08:55 49 47 47 93 250° 5 - 30.19 - 10 CLR None
2019-01-17 08:35 48 47 45 94 250° 6 - 30.19 - 10 CLR None
2019-01-17 08:15 47 46 44 94 260° 7 - 30.18 - 10 SCT002 None
2019-01-17 07:55 47 45 45 95 250° 3 - 30.18 - 7 SCT002 None
2019-01-17 07:35 47 46 43 95 250° 7 - 30.17 - 10 SCT003 None
2019-01-17 07:15 47 46 44 94 260° 7 - 30.16 - 7 BKN003 None
2019-01-17 06:55 48 47 46 94 280° 5 - 30.15 - 5 BR OVC003 None
2019-01-17 06:35 48 47 46 94 300° 6 - 30.14 - 10 OVC003 None
2019-01-17 06:15 49 47 47 94 270° 5 - 30.15 - 10 OVC003 None
2019-01-17 05:55 49 48 47 94 250° 7 - 30.14 - 10 OVC003 6-hr Min Temp (6am): 49.5°F
6-hr Max Temp (6am): 55.0°F
2019-01-17 05:35 50 48 47 94 260° 7 - 30.14 - 10 OVC003 None
2019-01-17 05:15 50 49 - 94 260° 6 - 30.15 - 10 OVC003 None
2019-01-17 04:55 51 49 - 94 250° 7 - 30.15 - 10 OVC003 None
2019-01-17 04:35 51 49 - 94 270° 5 - 30.15 - 10 OVC003 None
2019-01-17 04:15 51 49 - 92 260° 6 - 30.15 - 10 OVC005 None
2019-01-17 03:55 52 50 - 92 250° 6 - 30.15 - 10 OVC005 None
2019-01-17 03:35 52 50 - 92 260° 7 - 30.15 - 10 OVC005 None
2019-01-17 03:15 52 50 - 92 250° 8 - 30.15 - 10 OVC005 None
2019-01-17 02:55 53 51 - 92 240° 6 - 30.15 - 10 OVC005 None
2019-01-17 02:35 53 51 - 92 230° 8 - 30.14 - 10 OVC005 None
2019-01-17 02:15 53 51 - 91 250° 10 - 30.14 - 10 OVC005 None
2019-01-17 01:55 54 51 - 90 230° 6 - 30.14 - 10 OVC007 None
2019-01-17 01:35 54 51 - 90 230° 9 - 30.14 - 10 OVC007 None
2019-01-17 01:15 54 51 - 90 240° 6 - 30.15 - 10 OVC007 None
2019-01-17 00:55 55 51 - 89 230° 8 - 30.15 - 10 OVC007 None
2019-01-17 00:35 55 51 - 89 230° 8 - 30.16 - 10 OVC007 None
2019-01-17 00:15 55 51 - 88 220° 6 - 30.16 - 10 OVC009 None
2019-01-16 23:55 55 51 - 87 230° 5 - 30.17 - 10 OVC009 6-hr Min Temp (12am): 55.0°F
6-hr Max Temp (12am): 58.1°F
24-hr Min Temp (12am): 46.9°F
24-hr Max Temp (12am): 63.3°F
2019-01-16 23:35 55 51 - 87 220° 6 - 30.18 - 10 OVC009 None
2019-01-16 23:15 55 51 - 86 230° 10 - 30.18 - 10 OVC009 None
2019-01-16 22:55 55 51 - 85 220° 8 - 30.18 - 10 OVC009 None
2019-01-16 22:35 56 52 - 86 230° 8 - 30.18 - 10 OVC009 None
2019-01-16 22:15 56 52 - 86 220° 6 - 30.17 - 10 OVC009 None
2019-01-16 21:55 56 52 - 85 230° 8 - 30.18 - 10 OVC009 None
2019-01-16 21:35 56 52 - 85 220° 10 - 30.16 - 10 OVC009 None
2019-01-16 21:15 56 52 - 85 200° 7 - 30.16 - 10 OVC009 None
2019-01-16 20:55 56 52 - 84 210° 10 - 30.15 - 10 OVC011 None
2019-01-16 20:35 57 52 - 83 190° 9 - 30.16 - 10 OVC011 None
2019-01-16 20:15 57 52 - 83 210° 7 - 30.16 - 10 OVC013 None
2019-01-16 19:55 57 51 - 82 190° 6 - 30.15 - 10 OVC013 None
2019-01-16 19:35 57 51 - 81 200° 8 - 30.14 - 10 OVC015 None

Support USWX by starting your Amazon purchase here.